Time;durP1;ratioP1;P1;durP2;ratioP2;P2;SDS_P1;SDS_P2;PMS_P1;PMS_P2;Temp;Humidity;BMP_temperature;BMP_pressure;BME280_temperature;BME280_humidity;BME280_pressure;Samples;Min_cycle;Max_cycle;Signal;HPM_P1;HPM_P2
2023/07/19 00:01:23;;;;;;;6.43;3.90;;;;;;;;;;10337674;28;20300;-74
2023/07/19 00:06:23;;;;;;;4.00;3.60;;;;;;;;;;10333539;28;20064;-73
2023/07/19 00:11:24;;;;;;;5.97;3.75;;;;;;;;;;10315337;28;20120;-72
2023/07/19 00:16:24;;;;;;;5.15;3.40;;;;;;;;;;10341036;28;20046;-73
2023/07/19 00:21:25;;;;;;;5.37;3.67;;;;;;;;;;10320768;28;20062;-73
2023/07/19 00:26:26;;;;;;;4.38;3.38;;;;;;;;;;10329440;28;20301;-73
2023/07/19 00:31:26;;;;;;;5.50;3.53;;;;;;;;;;10339967;28;20442;-72
2023/07/19 00:36:27;;;;;;;5.57;3.80;;;;;;;;;;10341371;28;20046;-73
2023/07/19 00:41:27;;;;;;;4.13;3.72;;;;;;;;;;10329363;28;20403;-75
2023/07/19 00:46:28;;;;;;;4.63;3.40;;;;;;;;;;10338369;28;20112;-73
2023/07/19 00:51:29;;;;;;;4.80;3.60;;;;;;;;;;10339940;28;20026;-74
2023/07/19 00:56:29;;;;;;;3.90;3.40;;;;;;;;;;10334461;28;20514;-72
2023/07/19 01:01:30;;;;;;;4.68;3.78;;;;;;;;;;10339544;28;20045;-74
2023/07/19 01:06:31;;;;;;;7.18;4.15;;;;;;;;;;10327573;28;20049;-73
2023/07/19 01:11:31;;;;;;;6.53;3.80;;;;;;;;;;10328954;28;20038;-71
2023/07/19 01:16:32;;;;;;;6.88;5.30;;;;;;;;;;10335250;28;20038;-73
2023/07/19 01:21:33;;;;;;;5.88;4.60;;;;;;;;;;10339357;28;20061;-73
2023/07/19 01:26:33;;;;;;;6.20;5.20;;;;;;;;;;10331164;28;20038;-73
2023/07/19 01:31:36;;;;;;;5.77;4.23;;;;;;;;;;10331178;28;20302;-73
2023/07/19 01:36:36;;;;;;;5.15;4.22;;;;;;;;;;10334289;28;20061;-72
2023/07/19 01:41:37;;;;;;;4.63;4.13;;;;;;;;;;10317748;28;20065;-71
2023/07/19 01:46:38;;;;;;;6.77;4.30;;;;;;;;;;10339436;28;20073;-70
2023/07/19 01:51:39;;;;;;;8.88;4.28;;;;;;;;;;10329991;28;20077;-71
2023/07/19 01:56:39;;;;;;;5.45;4.03;;;;;;;;;;10323261;28;20073;-71
2023/07/19 02:01:39;;;;;;;6.07;3.97;;;;;;;;;;10317320;28;20042;-72
2023/07/19 02:06:40;;;;;;;5.13;4.20;;;;;;;;;;10345034;28;20046;-71
2023/07/19 02:11:40;;;;;;;6.07;4.00;;;;;;;;;;10337860;28;20485;-72
2023/07/19 02:16:41;;;;;;;6.50;4.70;;;;;;;;;;10313235;28;20786;-71
2023/07/19 02:21:42;;;;;;;5.82;4.68;;;;;;;;;;10332963;28;20044;-71
2023/07/19 02:26:42;;;;;;;6.17;4.20;;;;;;;;;;10317926;28;20052;-72
2023/07/19 02:31:43;;;;;;;6.80;4.57;;;;;;;;;;10342371;28;20034;-72
2023/07/19 02:36:45;;;;;;;7.88;4.72;;;;;;;;;;10332192;28;20133;-72
2023/07/19 02:41:46;;;;;;;6.63;4.32;;;;;;;;;;10336672;28;20046;-72
2023/07/19 02:46:46;;;;;;;4.40;3.97;;;;;;;;;;10339956;28;20513;-74
2023/07/19 02:51:46;;;;;;;5.20;4.67;;;;;;;;;;10320245;28;20045;-74
2023/07/19 02:56:47;;;;;;;5.75;4.07;;;;;;;;;;10338633;28;21718;-75
2023/07/19 03:01:47;;;;;;;6.85;4.80;;;;;;;;;;10350267;28;20042;-74
2023/07/19 03:06:48;;;;;;;5.60;4.40;;;;;;;;;;10345219;28;20486;-80
2023/07/19 03:11:51;;;;;;;6.07;5.07;;;;;;;;;;10337387;28;20316;-78
2023/07/19 03:16:51;;;;;;;5.75;4.80;;;;;;;;;;10340365;28;20468;-77
2023/07/19 03:21:52;;;;;;;7.47;5.03;;;;;;;;;;10316369;28;20108;-76
2023/07/19 03:26:55;;;;;;;7.00;4.80;;;;;;;;;;10320991;28;20041;-77
2023/07/19 03:31:55;;;;;;;6.90;4.65;;;;;;;;;;10341718;28;21176;-77
2023/07/19 03:36:56;;;;;;;9.48;5.22;;;;;;;;;;10326933;28;20108;-77
2023/07/19 03:41:57;;;;;;;6.40;4.80;;;;;;;;;;10333163;28;20642;-77
2023/07/19 03:46:58;;;;;;;6.45;4.82;;;;;;;;;;10343714;28;20045;-76
2023/07/19 03:51:59;;;;;;;8.02;5.65;;;;;;;;;;10347466;28;20040;-77
2023/07/19 03:57:01;;;;;;;8.02;4.90;;;;;;;;;;10322892;28;20527;-78
2023/07/19 04:02:01;;;;;;;5.63;4.72;;;;;;;;;;10331869;28;20763;-77
2023/07/19 04:07:02;;;;;;;9.02;5.07;;;;;;;;;;10322022;28;20153;-77
2023/07/19 04:12:03;;;;;;;6.78;4.93;;;;;;;;;;10344587;28;20046;-77
2023/07/19 04:17:03;;;;;;;6.80;4.82;;;;;;;;;;10322715;28;20046;-77
2023/07/19 04:22:06;;;;;;;6.32;4.70;;;;;;;;;;10332865;28;20901;-78
2023/07/19 04:27:07;;;;;;;7.43;5.38;;;;;;;;;;10323241;28;20049;-78
2023/07/19 04:32:07;;;;;;;7.25;5.20;;;;;;;;;;10327937;28;20048;-79
2023/07/19 04:37:08;;;;;;;5.93;5.00;;;;;;;;;;10331038;28;20045;-79
2023/07/19 04:42:08;;;;;;;7.05;4.80;;;;;;;;;;10343589;28;20046;-78
2023/07/19 04:47:10;;;;;;;6.05;4.32;;;;;;;;;;10328965;28;20038;-78
2023/07/19 04:52:10;;;;;;;6.80;4.78;;;;;;;;;;10326493;28;20038;-78
2023/07/19 04:57:11;;;;;;;7.43;5.25;;;;;;;;;;10321364;28;20772;-78
2023/07/19 05:02:13;;;;;;;6.95;4.80;;;;;;;;;;10342170;28;20390;-80
2023/07/19 05:07:14;;;;;;;6.45;4.63;;;;;;;;;;10328117;28;20040;-78
2023/07/19 05:12:15;;;;;;;6.20;5.00;;;;;;;;;;10335615;28;20042;-78
2023/07/19 05:17:16;;;;;;;5.23;4.30;;;;;;;;;;10345264;28;20046;-76
2023/07/19 05:22:16;;;;;;;6.45;5.18;;;;;;;;;;10338862;28;20026;-76
2023/07/19 05:27:17;;;;;;;7.23;5.10;;;;;;;;;;10334374;28;20573;-75
2023/07/19 05:32:17;;;;;;;9.57;5.47;;;;;;;;;;10339935;28;20088;-76
2023/07/19 05:37:18;;;;;;;9.60;5.03;;;;;;;;;;10335262;28;20052;-77
2023/07/19 05:42:18;;;;;;;8.07;5.67;;;;;;;;;;10345014;28;20034;-75
2023/07/19 05:47:18;;;;;;;10.00;4.88;;;;;;;;;;10342716;28;20038;-78
2023/07/19 05:52:19;;;;;;;8.48;5.68;;;;;;;;;;10350553;28;20174;-77
2023/07/19 05:57:19;;;;;;;8.63;5.17;;;;;;;;;;10375696;28;20038;-78
2023/07/19 06:02:19;;;;;;;10.97;6.23;;;;;;;;;;10372929;28;20153;-77
2023/07/19 06:07:20;;;;;;;8.47;5.47;;;;;;;;;;10332151;28;20050;-75
2023/07/19 06:12:20;;;;;;;8.98;6.18;;;;;;;;;;10334289;28;20044;-81
2023/07/19 06:17:20;;;;;;;8.97;5.63;;;;;;;;;;10336888;28;20072;-77
2023/07/19 06:22:21;;;;;;;7.57;5.37;;;;;;;;;;10330095;28;20065;-78
2023/07/19 06:27:21;;;;;;;7.67;5.27;;;;;;;;;;10329548;28;20030;-77
2023/07/19 06:32:22;;;;;;;7.60;4.43;;;;;;;;;;10330459;28;20296;-78
2023/07/19 06:37:22;;;;;;;6.13;4.60;;;;;;;;;;10329498;28;20347;-83
2023/07/19 06:42:22;;;;;;;6.77;4.53;;;;;;;;;;10318296;28;20073;-81
2023/07/19 06:47:23;;;;;;;6.47;4.33;;;;;;;;;;10332121;28;20074;-80
2023/07/19 06:52:23;;;;;;;8.38;4.88;;;;;;;;;;10333397;28;20148;-77
2023/07/19 06:57:23;;;;;;;9.25;5.43;;;;;;;;;;10336388;28;20066;-76
2023/07/19 07:02:24;;;;;;;7.23;4.73;;;;;;;;;;10330773;28;20038;-80
2023/07/19 07:07:24;;;;;;;4.30;3.90;;;;;;;;;;10314715;28;20040;-80
2023/07/19 07:12:26;;;;;;;8.13;4.70;;;;;;;;;;10342034;28;20038;-81
2023/07/19 07:17:26;;;;;;;6.70;4.75;;;;;;;;;;10331204;28;20188;-79
2023/07/19 07:22:30;;;;;;;5.97;4.00;;;;;;;;;;10331412;28;20095;-82
2023/07/19 07:27:30;;;;;;;8.63;5.22;;;;;;;;;;10354297;28;20038;-78
2023/07/19 07:32:31;;;;;;;6.20;4.63;;;;;;;;;;10338591;28;20085;-80
2023/07/19 07:37:32;;;;;;;7.55;4.88;;;;;;;;;;10357713;28;20394;-81
2023/07/19 07:42:32;;;;;;;8.25;4.22;;;;;;;;;;10345951;28;20056;-82
2023/07/19 07:47:33;;;;;;;7.40;4.50;;;;;;;;;;10337024;28;20033;-79
2023/07/19 07:52:37;;;;;;;5.60;4.22;;;;;;;;;;10347697;28;20572;-80
2023/07/19 07:57:37;;;;;;;6.03;4.50;;;;;;;;;;10347497;28;20476;-79
2023/07/19 08:02:41;;;;;;;8.23;4.70;;;;;;;;;;10340087;28;20057;-80
2023/07/19 08:07:41;;;;;;;7.97;4.72;;;;;;;;;;10351607;28;20038;-79
2023/07/19 08:12:42;;;;;;;8.07;4.70;;;;;;;;;;10346197;28;20026;-79
2023/07/19 08:17:42;;;;;;;6.77;4.70;;;;;;;;;;10354122;28;20050;-78
2023/07/19 08:22:42;;;;;;;8.35;4.57;;;;;;;;;;10349987;28;20057;-77
2023/07/19 08:27:44;;;;;;;8.33;4.70;;;;;;;;;;10335677;28;20044;-77
2023/07/19 08:32:47;;;;;;;4.90;4.30;;;;;;;;;;10340533;28;20284;-79
2023/07/19 08:37:48;;;;;;;5.90;4.53;;;;;;;;;;10347875;28;21391;-80
2023/07/19 08:42:49;;;;;;;6.32;4.53;;;;;;;;;;10336417;28;20081;-79
2023/07/19 08:47:50;;;;;;;5.38;3.83;;;;;;;;;;10347387;28;20057;-79
2023/07/19 08:52:51;;;;;;;5.97;3.88;;;;;;;;;;10341522;28;20118;-78
2023/07/19 08:57:51;;;;;;;4.50;3.60;;;;;;;;;;10340581;28;20049;-79
2023/07/19 09:02:55;;;;;;;4.83;3.80;;;;;;;;;;10353148;28;20066;-80
2023/07/19 09:07:59;;;;;;;4.88;3.75;;;;;;;;;;10380966;28;20031;-81
2023/07/19 09:13:03;;;;;;;5.50;3.80;;;;;;;;;;10355315;28;20041;-79
2023/07/19 09:18:05;;;;;;;7.10;3.50;;;;;;;;;;10348624;28;20120;-83
2023/07/19 09:23:05;;;;;;;6.25;3.65;;;;;;;;;;10351557;28;20037;-80
2023/07/19 09:28:09;;;;;;;5.83;3.37;;;;;;;;;;10362491;28;20029;-84
2023/07/19 09:33:15;;;;;;;6.60;3.20;;;;;;;;;;10370650;28;20034;-81
2023/07/19 09:38:16;;;;;;;5.90;3.60;;;;;;;;;;10377572;28;20033;-78
2023/07/19 09:43:16;;;;;;;6.90;3.30;;;;;;;;;;10376754;28;20032;-80
2023/07/19 09:48:17;;;;;;;5.67;3.47;;;;;;;;;;10363166;28;20042;-81
2023/07/19 09:53:22;;;;;;;5.70;3.90;;;;;;;;;;10360963;28;20050;-77
2023/07/19 09:58:23;;;;;;;4.85;3.40;;;;;;;;;;10359562;28;20054;-83
2023/07/19 10:03:24;;;;;;;4.32;3.28;;;;;;;;;;10382365;28;20021;-83
2023/07/19 10:08:25;;;;;;;7.18;3.17;;;;;;;;;;10374233;28;20033;-80
2023/07/19 10:13:50;;;;;;;4.13;3.57;;;;;;;;;;10366675;28;20053;-81
2023/07/19 10:19:10;;;;;;;10.05;5.85;;;;;;;;;;10338158;28;21268;-80
2023/07/19 10:24:13;;;;;;;9.82;7.22;;;;;;;;;;10353012;28;20062;-81
2023/07/19 10:29:16;;;;;;;7.68;4.00;;;;;;;;;;10421380;23;21704;-84
2023/07/19 10:34:27;;;;;;;4.60;3.28;;;;;;;;;;10398204;28;20044;-84
2023/07/19 10:39:27;;;;;;;5.22;2.90;;;;;;;;;;10411374;28;20034;-76
2023/07/19 10:44:29;;;;;;;5.20;3.30;;;;;;;;;;10395514;28;20046;-83
2023/07/19 10:49:30;;;;;;;3.72;2.88;;;;;;;;;;10384889;28;20091;-79
2023/07/19 10:54:30;;;;;;;4.37;3.00;;;;;;;;;;10392963;28;20060;-78
2023/07/19 10:59:31;;;;;;;4.27;2.70;;;;;;;;;;10404145;28;20076;-81
2023/07/19 11:04:34;;;;;;;3.55;2.47;;;;;;;;;;10407127;28;20037;-80
2023/07/19 11:09:35;;;;;;;3.85;2.60;;;;;;;;;;10413965;28;20056;-79
2023/07/19 11:14:41;;;;;;;6.73;2.97;;;;;;;;;;10414044;28;20040;-84
2023/07/19 11:19:41;;;;;;;3.92;2.63;;;;;;;;;;10592238;22;20480;-82
2023/07/19 11:24:42;;;;;;;5.10;2.83;;;;;;;;;;10394155;28;20009;-80
2023/07/19 11:29:42;;;;;;;6.40;2.60;;;;;;;;;;10399126;28;20114;-77
2023/07/19 11:34:51;;;;;;;4.47;2.90;;;;;;;;;;10360648;28;20762;-79
2023/07/19 11:39:51;;;;;;;3.45;2.58;;;;;;;;;;10381404;28;20064;-79
2023/07/19 11:44:52;;;;;;;3.55;2.72;;;;;;;;;;10358952;28;20060;-74
2023/07/19 11:49:53;;;;;;;4.03;3.23;;;;;;;;;;10380857;28;20125;-77
2023/07/19 11:54:55;;;;;;;4.63;2.70;;;;;;;;;;10346092;28;20052;-77
2023/07/19 11:59:55;;;;;;;4.07;2.55;;;;;;;;;;10379280;28;21198;-75
2023/07/19 12:04:56;;;;;;;2.90;2.40;;;;;;;;;;10391195;28;20033;-76
2023/07/19 12:09:56;;;;;;;3.13;2.40;;;;;;;;;;10384651;28;20113;-77
2023/07/19 12:15:00;;;;;;;2.70;2.17;;;;;;;;;;10393180;28;20417;-77
2023/07/19 12:20:01;;;;;;;4.15;2.00;;;;;;;;;;10382159;28;20127;-76
2023/07/19 12:25:01;;;;;;;2.80;1.93;;;;;;;;;;10381376;28;20110;-74
2023/07/19 12:30:02;;;;;;;3.60;2.10;;;;;;;;;;10390030;28;20033;-78
2023/07/19 12:35:02;;;;;;;3.90;2.30;;;;;;;;;;10388200;28;20033;-78
2023/07/19 12:40:05;;;;;;;3.40;2.37;;;;;;;;;;10360852;28;20103;-78
2023/07/19 12:45:09;;;;;;;3.33;2.30;;;;;;;;;;10372644;28;20040;-79
2023/07/19 12:50:09;;;;;;;3.10;2.15;;;;;;;;;;10364749;28;20498;-78
2023/07/19 12:55:10;;;;;;;3.93;2.10;;;;;;;;;;10383094;28;20087;-79
2023/07/19 13:00:13;;;;;;;4.43;2.30;;;;;;;;;;10376827;28;20077;-79
2023/07/19 13:05:13;;;;;;;4.53;2.13;;;;;;;;;;10378771;28;20132;-79
2023/07/19 13:10:14;;;;;;;3.30;2.40;;;;;;;;;;10381837;28;20912;-80
2023/07/19 13:15:17;;;;;;;5.50;2.50;;;;;;;;;;10379070;28;20041;-81
2023/07/19 13:20:18;;;;;;;3.08;2.25;;;;;;;;;;10364537;28;20054;-78
2023/07/19 13:25:19;;;;;;;5.20;2.45;;;;;;;;;;10365913;28;20044;-78
2023/07/19 13:30:21;;;;;;;2.65;2.20;;;;;;;;;;10383518;28;20044;-81
2023/07/19 13:35:23;;;;;;;3.38;2.20;;;;;;;;;;10403950;28;20038;-78
2023/07/19 13:40:24;;;;;;;;;;;;;;;;;;10372203;28;20055;-78
2023/07/19 13:45:25;;;;;;;4.20;2.30;;;;;;;;;;10341104;28;19916;-79
2023/07/19 13:50:25;;;;;;;3.00;2.30;;;;;;;;;;10361492;28;20095;-79
2023/07/19 13:55:25;;;;;;;3.17;2.47;;;;;;;;;;10374649;28;20044;-79
2023/07/19 14:00:26;;;;;;;;;;;;;;;;;;10382245;28;20690;-80
2023/07/19 14:05:27;;;;;;;3.75;2.17;;;;;;;;;;10370201;28;19917;-80
2023/07/19 14:10:27;;;;;;;2.60;2.30;;;;;;;;;;10380811;28;20064;-76
2023/07/19 14:15:28;;;;;;;3.33;2.37;;;;;;;;;;10381836;28;20033;-81
2023/07/19 14:20:29;;;;;;;2.97;2.33;;;;;;;;;;10350067;28;20084;-76
2023/07/19 14:25:29;;;;;;;2.97;2.38;;;;;;;;;;10343047;28;20372;-80
2023/07/19 14:30:29;;;;;;;3.87;2.23;;;;;;;;;;10360963;28;20045;-78
2023/07/19 14:35:30;;;;;;;6.27;3.90;;;;;;;;;;10377116;28;21181;-77
2023/07/19 14:40:31;;;;;;;6.07;2.45;;;;;;;;;;10371389;28;20034;-76
2023/07/19 14:45:31;;;;;;;5.73;5.13;;;;;;;;;;10514013;22;20056;-78
2023/07/19 14:50:32;;;;;;;7.77;2.73;;;;;;;;;;10420495;28;20100;-81
2023/07/19 14:55:32;;;;;;;4.60;2.93;;;;;;;;;;10408095;28;20518;-79
2023/07/19 15:00:32;;;;;;;4.17;3.00;;;;;;;;;;10471708;22;20073;-78
2023/07/19 15:05:33;;;;;;;3.43;3.07;;;;;;;;;;10394355;28;20049;-80
2023/07/19 15:10:33;;;;;;;5.23;2.70;;;;;;;;;;10420667;28;20036;-75
2023/07/19 15:15:34;;;;;;;4.70;2.90;;;;;;;;;;10418206;28;20123;-77
2023/07/19 15:20:34;;;;;;;3.20;2.63;;;;;;;;;;10412415;28;20109;-75
2023/07/19 15:25:34;;;;;;;4.72;3.20;;;;;;;;;;10426383;28;20040;-76
2023/07/19 15:30:35;;;;;;;4.67;2.97;;;;;;;;;;10420202;28;20030;-74
2023/07/19 15:35:35;;;;;;;4.93;2.80;;;;;;;;;;10400440;28;21186;-77
2023/07/19 15:40:35;;;;;;;4.33;2.97;;;;;;;;;;10417682;28;20049;-77
2023/07/19 15:45:37;;;;;;;4.03;2.90;;;;;;;;;;10426393;28;20287;-80
2023/07/19 15:50:38;;;;;;;;;;;;;;;;;;10417874;28;20784;-79
2023/07/19 15:55:39;;;;;;;4.28;3.08;;;;;;;;;;10426173;28;20000;-77
2023/07/19 16:00:39;;;;;;;4.70;2.67;;;;;;;;;;10401274;28;20034;-74
2023/07/19 16:05:39;;;;;;;4.78;2.78;;;;;;;;;;10383993;28;20299;-73
2023/07/19 16:10:40;;;;;;;4.68;2.90;;;;;;;;;;10385319;28;20041;-72
2023/07/19 16:15:40;;;;;;;4.60;2.97;;;;;;;;;;10391151;28;20045;-73
2023/07/19 16:20:41;;;;;;;3.17;2.75;;;;;;;;;;10366817;28;20041;-73
2023/07/19 16:25:41;;;;;;;4.57;3.00;;;;;;;;;;10350096;28;21291;-71
2023/07/19 16:30:42;;;;;;;3.65;2.95;;;;;;;;;;10387561;28;20037;-73
2023/07/19 16:35:42;;;;;;;3.70;2.70;;;;;;;;;;10384748;28;20056;-71
2023/07/19 16:40:43;;;;;;;3.17;2.60;;;;;;;;;;10388008;28;20512;-73
2023/07/19 16:45:43;;;;;;;3.83;2.70;;;;;;;;;;10384560;28;20489;-73
2023/07/19 16:50:43;;;;;;;4.13;2.63;;;;;;;;;;10381599;28;20085;-71
2023/07/19 16:55:44;;;;;;;7.97;6.70;;;;;;;;;;10388323;28;20047;-72
2023/07/19 17:00:45;;;;;;;5.73;2.87;;;;;;;;;;10371435;28;20178;-70
2023/07/19 17:05:45;;;;;;;3.27;2.60;;;;;;;;;;10388763;28;20038;-71
2023/07/19 17:10:46;;;;;;;4.88;3.00;;;;;;;;;;10396932;28;20052;-71
2023/07/19 17:15:46;;;;;;;4.13;3.13;;;;;;;;;;10370714;28;21316;-71
2023/07/19 17:20:47;;;;;;;5.82;3.10;;;;;;;;;;10370085;28;20292;-72
2023/07/19 17:25:48;;;;;;;4.72;3.17;;;;;;;;;;10383948;28;20121;-73
2023/07/19 17:30:48;;;;;;;7.13;3.13;;;;;;;;;;10390612;28;20047;-72
2023/07/19 17:35:48;;;;;;;5.00;3.40;;;;;;;;;;10382938;28;20184;-73
2023/07/19 17:40:49;;;;;;;6.70;3.40;;;;;;;;;;10376142;28;20084;-73
2023/07/19 17:45:49;;;;;;;3.57;3.13;;;;;;;;;;10390742;28;20037;-74
2023/07/19 17:50:50;;;;;;;7.27;4.00;;;;;;;;;;10389814;28;20335;-79
2023/07/19 17:55:51;;;;;;;4.32;3.15;;;;;;;;;;10392178;28;20049;-75
2023/07/19 18:00:51;;;;;;;5.03;3.15;;;;;;;;;;10368385;28;20033;-76
2023/07/19 18:05:52;;;;;;;5.43;3.35;;;;;;;;;;10372045;28;20837;-76
2023/07/19 18:10:53;;;;;;;5.75;3.42;;;;;;;;;;10385362;28;20583;-76
2023/07/19 18:15:53;;;;;;;5.63;2.93;;;;;;;;;;10390409;28;20041;-75
2023/07/19 18:20:54;;;;;;;3.80;2.80;;;;;;;;;;10391302;28;20304;-79
2023/07/19 18:25:55;;;;;;;3.55;2.70;;;;;;;;;;10374238;28;20033;-78
2023/07/19 18:30:55;;;;;;;4.35;2.90;;;;;;;;;;10385449;28;21202;-78
2023/07/19 18:35:55;;;;;;;5.17;3.13;;;;;;;;;;10379725;28;20050;-77
2023/07/19 18:40:56;;;;;;;4.87;3.30;;;;;;;;;;10391243;28;20292;-75
2023/07/19 18:45:57;;;;;;;4.75;3.08;;;;;;;;;;10371435;28;21446;-78
2023/07/19 18:50:57;;;;;;;6.47;3.30;;;;;;;;;;10390318;28;20603;-76
2023/07/19 18:55:58;;;;;;;4.60;3.15;;;;;;;;;;10370851;28;20048;-76
2023/07/19 19:00:58;;;;;;;4.40;3.17;;;;;;;;;;10380510;28;20136;-77
2023/07/19 19:05:58;;;;;;;5.07;3.22;;;;;;;;;;10389227;28;20064;-75
2023/07/19 19:10:59;;;;;;;3.90;3.47;;;;;;;;;;10392021;28;20044;-76
2023/07/19 19:16:00;;;;;;;3.65;3.33;;;;;;;;;;10396247;28;20049;-78
2023/07/19 19:21:01;;;;;;;5.15;3.50;;;;;;;;;;10404337;28;20034;-77
2023/07/19 19:26:01;;;;;;;4.20;3.20;;;;;;;;;;10405488;28;20037;-75
2023/07/19 19:31:01;;;;;;;6.37;3.87;;;;;;;;;;10378010;28;20284;-74
2023/07/19 19:36:03;;;;;;;6.65;4.50;;;;;;;;;;10398671;28;20800;-75
2023/07/19 19:41:03;;;;;;;4.45;3.80;;;;;;;;;;10392443;28;20075;-77
2023/07/19 19:46:03;;;;;;;4.10;3.70;;;;;;;;;;10393537;28;20037;-75
2023/07/19 19:51:04;;;;;;;5.30;3.65;;;;;;;;;;10390651;28;20331;-74
2023/07/19 19:56:04;;;;;;;6.03;4.20;;;;;;;;;;10394188;28;20397;-76
2023/07/19 20:01:05;;;;;;;5.07;3.73;;;;;;;;;;10392466;28;20458;-77
2023/07/19 20:06:05;;;;;;;5.70;4.03;;;;;;;;;;10395684;28;20040;-76
2023/07/19 20:11:06;;;;;;;5.57;4.00;;;;;;;;;;10390886;28;20033;-77
2023/07/19 20:16:06;;;;;;;5.05;4.13;;;;;;;;;;10391415;28;20049;-78
2023/07/19 20:21:07;;;;;;;5.47;4.03;;;;;;;;;;10394071;28;20394;-79
2023/07/19 20:26:10;;;;;;;6.40;5.05;;;;;;;;;;10353871;28;20556;-79
2023/07/19 20:31:12;;;;;;;4.72;4.18;;;;;;;;;;10359669;28;20088;-78
2023/07/19 20:36:13;;;;;;;7.60;4.20;;;;;;;;;;10360251;28;20478;-79
2023/07/19 20:41:20;;;;;;;6.25;4.20;;;;;;;;;;10377961;28;20048;-79
2023/07/19 20:46:20;;;;;;;7.63;4.30;;;;;;;;;;10378625;28;20041;-77
2023/07/19 20:51:21;;;;;;;5.53;4.15;;;;;;;;;;10380545;28;20916;-74
2023/07/19 20:56:25;;;;;;;6.10;3.90;;;;;;;;;;10386547;28;20043;-77
2023/07/19 21:01:27;;;;;;;5.95;4.50;;;;;;;;;;10393407;28;20047;-78
2023/07/19 21:06:27;;;;;;;4.60;4.13;;;;;;;;;;10375373;28;20041;-75
2023/07/19 21:11:28;;;;;;;4.57;4.07;;;;;;;;;;10393275;28;20029;-75
2023/07/19 21:16:28;;;;;;;4.80;3.87;;;;;;;;;;10377007;28;20308;-76
2023/07/19 21:21:28;;;;;;;6.67;4.43;;;;;;;;;;10391566;28;20660;-75
2023/07/19 21:26:30;;;;;;;5.20;3.87;;;;;;;;;;10391187;28;20040;-75
2023/07/19 21:31:33;;;;;;;7.47;4.73;;;;;;;;;;10394628;28;20485;-74
2023/07/19 21:36:33;;;;;;;4.82;4.30;;;;;;;;;;10395946;28;20040;-74
2023/07/19 21:41:34;;;;;;;5.95;4.10;;;;;;;;;;10388880;28;20036;-77
2023/07/19 21:46:34;;;;;;;9.03;5.30;;;;;;;;;;10389283;28;20042;-79
2023/07/19 21:51:34;;;;;;;5.97;4.40;;;;;;;;;;10388131;28;20036;-77
2023/07/19 21:56:34;;;;;;;6.77;4.40;;;;;;;;;;10392878;28;20053;-75
2023/07/19 22:01:35;;;;;;;5.50;4.13;;;;;;;;;;10389718;28;20120;-75
2023/07/19 22:06:35;;;;;;;6.07;4.50;;;;;;;;;;10389538;28;21309;-76
2023/07/19 22:11:37;;;;;;;5.63;4.53;;;;;;;;;;10378585;28;20391;-77
2023/07/19 22:16:41;;;;;;;4.50;4.10;;;;;;;;;;10393284;28;20794;-75
2023/07/19 22:21:42;;;;;;;7.07;4.80;;;;;;;;;;10386620;28;20127;-74
2023/07/19 22:26:42;;;;;;;5.82;4.47;;;;;;;;;;10376608;28;20099;-73
2023/07/19 22:31:43;;;;;;;7.22;4.70;;;;;;;;;;10386483;28;20041;-73
2023/07/19 22:36:43;;;;;;;7.60;4.45;;;;;;;;;;10376823;28;20073;-75
2023/07/19 22:41:44;;;;;;;6.57;4.53;;;;;;;;;;10372321;28;20129;-75
2023/07/19 22:46:46;;;;;;;8.37;4.70;;;;;;;;;;10377093;28;20457;-74
2023/07/19 22:51:46;;;;;;;5.28;4.70;;;;;;;;;;10389179;28;20287;-74
2023/07/19 22:56:47;;;;;;;6.47;4.80;;;;;;;;;;10398144;28;20433;-74
2023/07/19 23:01:47;;;;;;;6.25;4.45;;;;;;;;;;10397444;28;20056;-77
2023/07/19 23:06:48;;;;;;;5.73;4.70;;;;;;;;;;10400981;28;20112;-73
2023/07/19 23:11:49;;;;;;;6.57;4.68;;;;;;;;;;10399066;28;20042;-74
2023/07/19 23:16:49;;;;;;;7.65;4.93;;;;;;;;;;10378960;28;20049;-74
2023/07/19 23:21:50;;;;;;;6.68;4.75;;;;;;;;;;10398470;28;21545;-73
2023/07/19 23:26:50;;;;;;;6.13;5.07;;;;;;;;;;10397138;28;20111;-75
2023/07/19 23:31:51;;;;;;;5.63;5.00;;;;;;;;;;10380803;28;20466;-75
2023/07/19 23:36:51;;;;;;;7.00;4.95;;;;;;;;;;10381035;28;20052;-76
2023/07/19 23:41:53;;;;;;;7.55;5.25;;;;;;;;;;10398718;28;20038;-74
2023/07/19 23:46:53;;;;;;;5.63;4.43;;;;;;;;;;10400534;28;20037;-74
2023/07/19 23:51:53;;;;;;;6.53;4.63;;;;;;;;;;10398852;28;20808;-74
2023/07/19 23:56:54;;;;;;;6.97;4.87;;;;;;;;;;10401803;28;20045;-75
